sensor_id;sensor_type;location;lat;lon;timestamp;temperature;humidity
75648;DHT22;64238;51.466;7.260;2022-12-07T00:00:55;22.40;44.10
75648;DHT22;64238;51.466;7.260;2022-12-07T00:03:29;22.30;44.30
75648;DHT22;64238;51.466;7.260;2022-12-07T00:05:58;22.40;44.50
75648;DHT22;64238;51.466;7.260;2022-12-07T00:08:23;22.40;44.30
75648;DHT22;64238;51.466;7.260;2022-12-07T00:10:49;22.40;44.50
75648;DHT22;64238;51.466;7.260;2022-12-07T00:13:14;22.40;44.20
75648;DHT22;64238;51.466;7.260;2022-12-07T00:15:40;22.40;44.50
75648;DHT22;64238;51.466;7.260;2022-12-07T00:18:05;22.30;44.30
75648;DHT22;64238;51.466;7.260;2022-12-07T00:20:31;22.40;44.40
75648;DHT22;64238;51.466;7.260;2022-12-07T00:22:56;22.40;44.20
75648;DHT22;64238;51.466;7.260;2022-12-07T00:25:22;22.40;44.10
75648;DHT22;64238;51.466;7.260;2022-12-07T00:27:47;22.50;44.50
75648;DHT22;64238;51.466;7.260;2022-12-07T00:30:13;22.40;44.50
75648;DHT22;64238;51.466;7.260;2022-12-07T00:32:39;22.40;44.40
75648;DHT22;64238;51.466;7.260;2022-12-07T00:35:05;22.40;44.50
75648;DHT22;64238;51.466;7.260;2022-12-07T00:37:30;22.40;44.70
75648;DHT22;64238;51.466;7.260;2022-12-07T00:39:56;22.50;44.30
75648;DHT22;64238;51.466;7.260;2022-12-07T00:42:21;22.50;44.50
75648;DHT22;64238;51.466;7.260;2022-12-07T00:44:47;22.40;44.20
75648;DHT22;64238;51.466;7.260;2022-12-07T00:47:12;22.40;44.40
75648;DHT22;64238;51.466;7.260;2022-12-07T00:49:38;22.40;44.30
75648;DHT22;64238;51.466;7.260;2022-12-07T00:52:03;22.50;44.50
75648;DHT22;64238;51.466;7.260;2022-12-07T00:54:29;22.30;44.30
75648;DHT22;64238;51.466;7.260;2022-12-07T00:56:54;22.40;44.50
75648;DHT22;64238;51.466;7.260;2022-12-07T00:59:20;22.30;44.20
75648;DHT22;64238;51.466;7.260;2022-12-07T01:01:45;22.40;44.10
75648;DHT22;64238;51.466;7.260;2022-12-07T01:04:11;22.40;44.20
75648;DHT22;64238;51.466;7.260;2022-12-07T01:06:36;22.40;44.00
75648;DHT22;64238;51.466;7.260;2022-12-07T01:09:03;22.40;44.50
75648;DHT22;64238;51.466;7.260;2022-12-07T01:11:30;22.30;44.30
75648;DHT22;64238;51.466;7.260;2022-12-07T01:13:57;22.40;44.40
75648;DHT22;64238;51.466;7.260;2022-12-07T01:16:25;22.50;44.10
75648;DHT22;64238;51.466;7.260;2022-12-07T01:18:53;22.40;44.20
75648;DHT22;64238;51.466;7.260;2022-12-07T01:21:21;22.40;44.40
75648;DHT22;64238;51.466;7.260;2022-12-07T01:23:48;22.50;44.10
75648;DHT22;64238;51.466;7.260;2022-12-07T01:26:16;22.30;44.40
75648;DHT22;64238;51.466;7.260;2022-12-07T01:28:42;22.40;44.30
75648;DHT22;64238;51.466;7.260;2022-12-07T01:31:14;22.30;44.10
75648;DHT22;64238;51.466;7.260;2022-12-07T01:33:48;22.40;44.20
75648;DHT22;64238;51.466;7.260;2022-12-07T01:38:44;22.30;44.50
75648;DHT22;64238;51.466;7.260;2022-12-07T01:41:10;22.30;44.30
75648;DHT22;64238;51.466;7.260;2022-12-07T01:43:36;22.50;44.40
75648;DHT22;64238;51.466;7.260;2022-12-07T01:46:03;22.40;44.40
75648;DHT22;64238;51.466;7.260;2022-12-07T01:48:37;22.30;44.70
75648;DHT22;64238;51.466;7.260;2022-12-07T01:51:06;22.40;44.40
75648;DHT22;64238;51.466;7.260;2022-12-07T01:53:36;22.40;44.50
75648;DHT22;64238;51.466;7.260;2022-12-07T01:56:05;22.40;44.40
75648;DHT22;64238;51.466;7.260;2022-12-07T01:58:31;22.30;44.50
75648;DHT22;64238;51.466;7.260;2022-12-07T02:00:57;22.40;44.90
75648;DHT22;64238;51.466;7.260;2022-12-07T02:03:31;22.50;44.40
75648;DHT22;64238;51.466;7.260;2022-12-07T02:05:58;22.40;44.40
75648;DHT22;64238;51.466;7.260;2022-12-07T02:08:24;22.40;44.60
75648;DHT22;64238;51.466;7.260;2022-12-07T02:10:50;22.40;44.20
75648;DHT22;64238;51.466;7.260;2022-12-07T02:13:20;22.40;44.10
75648;DHT22;64238;51.466;7.260;2022-12-07T02:16:02;22.40;44.30
75648;DHT22;64238;51.466;7.260;2022-12-07T02:27:17;22.30;44.60
75648;DHT22;64238;51.466;7.260;2022-12-07T02:29:47;22.40;44.40
75648;DHT22;64238;51.466;7.260;2022-12-07T02:37:39;22.40;44.40
75648;DHT22;64238;51.466;7.260;2022-12-07T02:42:37;22.30;44.60
75648;DHT22;64238;51.466;7.260;2022-12-07T02:45:05;22.40;44.30
75648;DHT22;64238;51.466;7.260;2022-12-07T02:47:31;22.30;44.70
75648;DHT22;64238;51.466;7.260;2022-12-07T02:49:59;22.40;44.30
75648;DHT22;64238;51.466;7.260;2022-12-07T02:52:25;22.40;44.20
75648;DHT22;64238;51.466;7.260;2022-12-07T02:54:50;22.40;44.60
75648;DHT22;64238;51.466;7.260;2022-12-07T02:57:46;22.40;44.40
75648;DHT22;64238;51.466;7.260;2022-12-07T03:00:19;22.40;44.20
75648;DHT22;64238;51.466;7.260;2022-12-07T03:02:58;22.40;44.40
75648;DHT22;64238;51.466;7.260;2022-12-07T03:11:03;22.40;44.20
75648;DHT22;64238;51.466;7.260;2022-12-07T03:14:02;22.40;44.50
75648;DHT22;64238;51.466;7.260;2022-12-07T03:16:35;22.40;44.40
75648;DHT22;64238;51.466;7.260;2022-12-07T03:19:09;22.40;44.40
75648;DHT22;64238;51.466;7.260;2022-12-07T03:21:43;22.30;44.40
75648;DHT22;64238;51.466;7.260;2022-12-07T03:24:15;22.40;44.50
75648;DHT22;64238;51.466;7.260;2022-12-07T03:26:47;22.40;44.50
75648;DHT22;64238;51.466;7.260;2022-12-07T03:29:27;22.30;44.60
75648;DHT22;64238;51.466;7.260;2022-12-07T03:32:15;22.40;44.30
75648;DHT22;64238;51.466;7.260;2022-12-07T03:35:03;22.40;44.30
75648;DHT22;64238;51.466;7.260;2022-12-07T03:37:39;22.30;44.30
75648;DHT22;64238;51.466;7.260;2022-12-07T03:40:34;22.40;44.70
75648;DHT22;64238;51.466;7.260;2022-12-07T03:43:01;22.30;44.70
75648;DHT22;64238;51.466;7.260;2022-12-07T03:45:38;22.40;44.50
75648;DHT22;64238;51.466;7.260;2022-12-07T03:48:07;22.30;44.60
75648;DHT22;64238;51.466;7.260;2022-12-07T03:51:13;22.40;44.50
75648;DHT22;64238;51.466;7.260;2022-12-07T03:53:51;22.40;44.10
75648;DHT22;64238;51.466;7.260;2022-12-07T03:56:18;22.30;44.10
75648;DHT22;64238;51.466;7.260;2022-12-07T03:58:44;22.30;44.30
75648;DHT22;64238;51.466;7.260;2022-12-07T04:01:10;22.40;44.30
75648;DHT22;64238;51.466;7.260;2022-12-07T04:03:36;22.40;44.60
75648;DHT22;64238;51.466;7.260;2022-12-07T04:06:02;22.30;44.30
75648;DHT22;64238;51.466;7.260;2022-12-07T04:08:30;22.30;44.20
75648;DHT22;64238;51.466;7.260;2022-12-07T04:10:56;22.30;44.50
75648;DHT22;64238;51.466;7.260;2022-12-07T04:13:21;22.40;44.40
75648;DHT22;64238;51.466;7.260;2022-12-07T04:15:47;22.40;44.50
75648;DHT22;64238;51.466;7.260;2022-12-07T04:18:12;22.40;44.60
75648;DHT22;64238;51.466;7.260;2022-12-07T04:20:38;22.40;44.50
75648;DHT22;64238;51.466;7.260;2022-12-07T04:23:03;22.40;44.30
75648;DHT22;64238;51.466;7.260;2022-12-07T04:25:29;22.30;44.60
75648;DHT22;64238;51.466;7.260;2022-12-07T04:27:55;22.30;44.40
75648;DHT22;64238;51.466;7.260;2022-12-07T04:30:20;22.30;44.40
75648;DHT22;64238;51.466;7.260;2022-12-07T04:32:46;22.30;44.60
75648;DHT22;64238;51.466;7.260;2022-12-07T04:35:11;22.30;44.50
75648;DHT22;64238;51.466;7.260;2022-12-07T04:37:37;22.30;44.40
75648;DHT22;64238;51.466;7.260;2022-12-07T04:40:06;22.40;44.20
75648;DHT22;64238;51.466;7.260;2022-12-07T04:42:32;22.30;44.40
75648;DHT22;64238;51.466;7.260;2022-12-07T04:44:58;22.40;44.20
75648;DHT22;64238;51.466;7.260;2022-12-07T04:47:26;22.30;44.20
75648;DHT22;64238;51.466;7.260;2022-12-07T04:49:52;22.30;44.40
75648;DHT22;64238;51.466;7.260;2022-12-07T04:52:17;22.40;44.10
75648;DHT22;64238;51.466;7.260;2022-12-07T04:54:43;22.40;44.30
75648;DHT22;64238;51.466;7.260;2022-12-07T04:57:09;22.40;44.30
75648;DHT22;64238;51.466;7.260;2022-12-07T04:59:34;22.40;44.50
75648;DHT22;64238;51.466;7.260;2022-12-07T05:02:00;22.40;44.20
75648;DHT22;64238;51.466;7.260;2022-12-07T05:04:25;22.40;44.40
75648;DHT22;64238;51.466;7.260;2022-12-07T05:06:51;22.40;44.20
75648;DHT22;64238;51.466;7.260;2022-12-07T05:09:16;22.30;44.40
75648;DHT22;64238;51.466;7.260;2022-12-07T05:11:42;22.30;44.50
75648;DHT22;64238;51.466;7.260;2022-12-07T05:14:20;22.40;44.40
75648;DHT22;64238;51.466;7.260;2022-12-07T05:16:48;22.30;44.50
75648;DHT22;64238;51.466;7.260;2022-12-07T05:19:15;22.30;44.50
75648;DHT22;64238;51.466;7.260;2022-12-07T05:21:40;22.30;44.30
75648;DHT22;64238;51.466;7.260;2022-12-07T05:24:07;22.30;44.60
75648;DHT22;64238;51.466;7.260;2022-12-07T05:26:33;22.30;44.40
75648;DHT22;64238;51.466;7.260;2022-12-07T05:28:59;22.40;44.50
75648;DHT22;64238;51.466;7.260;2022-12-07T05:31:26;22.30;44.30
75648;DHT22;64238;51.466;7.260;2022-12-07T05:33:51;22.30;44.60
75648;DHT22;64238;51.466;7.260;2022-12-07T05:36:17;22.40;44.30
75648;DHT22;64238;51.466;7.260;2022-12-07T05:38:42;22.30;44.30
75648;DHT22;64238;51.466;7.260;2022-12-07T05:41:09;22.30;44.50
75648;DHT22;64238;51.466;7.260;2022-12-07T05:43:56;22.40;44.40
75648;DHT22;64238;51.466;7.260;2022-12-07T05:46:22;22.40;44.60
75648;DHT22;64238;51.466;7.260;2022-12-07T05:48:48;22.30;44.40
75648;DHT22;64238;51.466;7.260;2022-12-07T05:51:13;22.30;44.10
75648;DHT22;64238;51.466;7.260;2022-12-07T05:53:38;22.30;44.40
75648;DHT22;64238;51.466;7.260;2022-12-07T05:56:04;22.30;44.60
75648;DHT22;64238;51.466;7.260;2022-12-07T05:58:30;22.30;44.30
75648;DHT22;64238;51.466;7.260;2022-12-07T06:01:14;22.30;44.20
75648;DHT22;64238;51.466;7.260;2022-12-07T06:03:39;22.30;44.50
75648;DHT22;64238;51.466;7.260;2022-12-07T06:06:05;22.30;44.60
75648;DHT22;64238;51.466;7.260;2022-12-07T06:08:30;22.20;44.70
75648;DHT22;64238;51.466;7.260;2022-12-07T06:10:56;22.30;44.70
75648;DHT22;64238;51.466;7.260;2022-12-07T06:13:40;22.30;44.40
75648;DHT22;64238;51.466;7.260;2022-12-07T06:16:06;22.30;45.30
75648;DHT22;64238;51.466;7.260;2022-12-07T06:18:32;22.20;45.00
75648;DHT22;64238;51.466;7.260;2022-12-07T06:20:59;22.30;44.90
75648;DHT22;64238;51.466;7.260;2022-12-07T06:23:24;22.20;44.70
75648;DHT22;64238;51.466;7.260;2022-12-07T06:25:50;22.20;44.80
75648;DHT22;64238;51.466;7.260;2022-12-07T06:28:15;22.20;44.60
75648;DHT22;64238;51.466;7.260;2022-12-07T06:30:41;22.20;44.60
75648;DHT22;64238;51.466;7.260;2022-12-07T06:33:06;22.20;44.70
75648;DHT22;64238;51.466;7.260;2022-12-07T06:35:33;22.10;44.40
75648;DHT22;64238;51.466;7.260;2022-12-07T06:37:58;22.10;44.30
75648;DHT22;64238;51.466;7.260;2022-12-07T06:40:24;22.10;44.50
75648;DHT22;64238;51.466;7.260;2022-12-07T06:42:50;22.00;44.60
75648;DHT22;64238;51.466;7.260;2022-12-07T06:45:15;22.10;44.40
75648;DHT22;64238;51.466;7.260;2022-12-07T06:47:41;22.10;44.30
75648;DHT22;64238;51.466;7.260;2022-12-07T06:50:06;22.20;44.20
75648;DHT22;64238;51.466;7.260;2022-12-07T06:52:33;22.10;44.50
75648;DHT22;64238;51.466;7.260;2022-12-07T06:54:58;22.10;44.40
75648;DHT22;64238;51.466;7.260;2022-12-07T06:57:25;22.10;44.50
75648;DHT22;64238;51.466;7.260;2022-12-07T06:59:50;22.10;44.20
75648;DHT22;64238;51.466;7.260;2022-12-07T07:02:16;22.10;44.40
75648;DHT22;64238;51.466;7.260;2022-12-07T07:04:42;22.10;44.30
75648;DHT22;64238;51.466;7.260;2022-12-07T07:07:08;22.00;44.30
75648;DHT22;64238;51.466;7.260;2022-12-07T07:09:33;22.10;44.50
75648;DHT22;64238;51.466;7.260;2022-12-07T07:11:59;22.10;43.90
75648;DHT22;64238;51.466;7.260;2022-12-07T07:14:24;22.10;44.10
75648;DHT22;64238;51.466;7.260;2022-12-07T07:16:50;22.10;44.20
75648;DHT22;64238;51.466;7.260;2022-12-07T07:19:15;22.10;44.10
75648;DHT22;64238;51.466;7.260;2022-12-07T07:21:41;22.10;44.00
75648;DHT22;64238;51.466;7.260;2022-12-07T07:24:07;22.00;44.20
75648;DHT22;64238;51.466;7.260;2022-12-07T07:26:32;22.00;44.20
75648;DHT22;64238;51.466;7.260;2022-12-07T07:28:58;22.10;44.10
75648;DHT22;64238;51.466;7.260;2022-12-07T07:31:23;22.10;44.00
75648;DHT22;64238;51.466;7.260;2022-12-07T07:33:49;22.00;44.10
75648;DHT22;64238;51.466;7.260;2022-12-07T07:36:14;22.00;43.90
75648;DHT22;64238;51.466;7.260;2022-12-07T07:38:40;22.00;44.10
75648;DHT22;64238;51.466;7.260;2022-12-07T07:41:05;22.00;44.00
75648;DHT22;64238;51.466;7.260;2022-12-07T07:43:32;22.10;43.90
75648;DHT22;64238;51.466;7.260;2022-12-07T07:45:57;22.10;44.00
75648;DHT22;64238;51.466;7.260;2022-12-07T07:48:23;22.00;44.10
75648;DHT22;64238;51.466;7.260;2022-12-07T07:50:50;22.10;44.10
75648;DHT22;64238;51.466;7.260;2022-12-07T07:53:16;22.10;44.00
75648;DHT22;64238;51.466;7.260;2022-12-07T07:55:49;22.10;44.00
75648;DHT22;64238;51.466;7.260;2022-12-07T07:58:15;22.10;44.00
75648;DHT22;64238;51.466;7.260;2022-12-07T08:00:40;22.10;44.00
75648;DHT22;64238;51.466;7.260;2022-12-07T08:03:06;22.10;44.10
75648;DHT22;64238;51.466;7.260;2022-12-07T08:05:31;22.00;44.00
75648;DHT22;64238;51.466;7.260;2022-12-07T08:07:57;22.10;43.90
75648;DHT22;64238;51.466;7.260;2022-12-07T08:10:23;22.10;44.20
75648;DHT22;64238;51.466;7.260;2022-12-07T08:12:48;22.20;44.50
75648;DHT22;64238;51.466;7.260;2022-12-07T08:15:33;22.10;44.10
75648;DHT22;64238;51.466;7.260;2022-12-07T08:17:59;22.20;44.00
75648;DHT22;64238;51.466;7.260;2022-12-07T08:20:24;22.10;44.30
75648;DHT22;64238;51.466;7.260;2022-12-07T08:22:50;22.10;44.20
75648;DHT22;64238;51.466;7.260;2022-12-07T08:25:16;22.20;44.30
75648;DHT22;64238;51.466;7.260;2022-12-07T08:27:41;22.10;44.50
75648;DHT22;64238;51.466;7.260;2022-12-07T08:30:07;22.20;44.40
75648;DHT22;64238;51.466;7.260;2022-12-07T08:32:33;22.20;44.10
75648;DHT22;64238;51.466;7.260;2022-12-07T08:34:58;22.20;44.40
75648;DHT22;64238;51.466;7.260;2022-12-07T08:37:24;22.20;44.30
75648;DHT22;64238;51.466;7.260;2022-12-07T08:39:49;22.20;44.40
75648;DHT22;64238;51.466;7.260;2022-12-07T08:42:15;22.20;44.60
75648;DHT22;64238;51.466;7.260;2022-12-07T08:44:40;22.30;44.50
75648;DHT22;64238;51.466;7.260;2022-12-07T08:47:06;22.20;44.60
75648;DHT22;64238;51.466;7.260;2022-12-07T08:49:38;22.30;44.30
75648;DHT22;64238;51.466;7.260;2022-12-07T08:52:05;22.30;44.70
75648;DHT22;64238;51.466;7.260;2022-12-07T08:54:34;22.30;44.70
75648;DHT22;64238;51.466;7.260;2022-12-07T08:57:00;22.30;44.80
75648;DHT22;64238;51.466;7.260;2022-12-07T08:59:26;22.40;44.70
75648;DHT22;64238;51.466;7.260;2022-12-07T09:01:52;22.40;45.00
75648;DHT22;64238;51.466;7.260;2022-12-07T09:04:18;22.40;44.70
75648;DHT22;64238;51.466;7.260;2022-12-07T09:06:43;22.40;44.80
75648;DHT22;64238;51.466;7.260;2022-12-07T09:09:11;22.30;44.30
75648;DHT22;64238;51.466;7.260;2022-12-07T09:11:38;22.30;44.50
75648;DHT22;64238;51.466;7.260;2022-12-07T09:14:04;22.30;44.50
75648;DHT22;64238;51.466;7.260;2022-12-07T09:16:30;22.40;44.60
75648;DHT22;64238;51.466;7.260;2022-12-07T09:18:56;22.40;44.60
75648;DHT22;64238;51.466;7.260;2022-12-07T09:21:21;22.40;44.40
75648;DHT22;64238;51.466;7.260;2022-12-07T09:23:47;22.40;44.40
75648;DHT22;64238;51.466;7.260;2022-12-07T09:26:12;22.40;44.40
75648;DHT22;64238;51.466;7.260;2022-12-07T09:28:38;22.40;44.30
75648;DHT22;64238;51.466;7.260;2022-12-07T09:31:06;22.40;44.40
75648;DHT22;64238;51.466;7.260;2022-12-07T09:33:31;22.40;44.10
75648;DHT22;64238;51.466;7.260;2022-12-07T09:35:58;22.40;44.40
75648;DHT22;64238;51.466;7.260;2022-12-07T09:38:23;22.50;44.40
75648;DHT22;64238;51.466;7.260;2022-12-07T09:40:53;22.40;44.30
75648;DHT22;64238;51.466;7.260;2022-12-07T09:43:22;22.50;44.40
75648;DHT22;64238;51.466;7.260;2022-12-07T09:45:50;22.40;44.40
75648;DHT22;64238;51.466;7.260;2022-12-07T09:48:36;22.50;44.40
75648;DHT22;64238;51.466;7.260;2022-12-07T09:51:03;22.40;44.50
75648;DHT22;64238;51.466;7.260;2022-12-07T09:53:38;22.40;44.10
75648;DHT22;64238;51.466;7.260;2022-12-07T09:56:05;22.50;43.90
75648;DHT22;64238;51.466;7.260;2022-12-07T09:58:32;22.50;44.00
75648;DHT22;64238;51.466;7.260;2022-12-07T10:01:16;22.50;43.80
75648;DHT22;64238;51.466;7.260;2022-12-07T10:03:55;22.50;43.80
75648;DHT22;64238;51.466;7.260;2022-12-07T10:06:24;22.60;44.00
75648;DHT22;64238;51.466;7.260;2022-12-07T10:08:49;22.60;44.10
75648;DHT22;64238;51.466;7.260;2022-12-07T10:11:15;22.60;44.00
75648;DHT22;64238;51.466;7.260;2022-12-07T10:13:49;22.60;43.80
75648;DHT22;64238;51.466;7.260;2022-12-07T10:18:50;22.60;44.00
75648;DHT22;64238;51.466;7.260;2022-12-07T10:21:22;22.60;44.20
75648;DHT22;64238;51.466;7.260;2022-12-07T10:24:03;22.70;44.10
75648;DHT22;64238;51.466;7.260;2022-12-07T10:26:46;22.80;44.10
75648;DHT22;64238;51.466;7.260;2022-12-07T10:29:37;22.80;44.00
75648;DHT22;64238;51.466;7.260;2022-12-07T10:32:32;22.70;43.70
75648;DHT22;64238;51.466;7.260;2022-12-07T10:37:49;22.70;43.80
75648;DHT22;64238;51.466;7.260;2022-12-07T10:40:33;22.70;43.70
75648;DHT22;64238;51.466;7.260;2022-12-07T10:43:07;22.80;43.60
75648;DHT22;64238;51.466;7.260;2022-12-07T10:48:59;22.80;43.60
75648;DHT22;64238;51.466;7.260;2022-12-07T10:51:54;22.70;43.70
75648;DHT22;64238;51.466;7.260;2022-12-07T11:00:03;22.70;43.40
75648;DHT22;64238;51.466;7.260;2022-12-07T11:05:23;22.80;43.60
75648;DHT22;64238;51.466;7.260;2022-12-07T11:08:18;22.70;43.60
75648;DHT22;64238;51.466;7.260;2022-12-07T11:21:57;22.70;43.50
75648;DHT22;64238;51.466;7.260;2022-12-07T11:24:31;22.70;43.80
75648;DHT22;64238;51.466;7.260;2022-12-07T11:27:08;22.80;43.80
75648;DHT22;64238;51.466;7.260;2022-12-07T11:29:49;22.80;43.80
75648;DHT22;64238;51.466;7.260;2022-12-07T11:32:52;22.80;43.40
75648;DHT22;64238;51.466;7.260;2022-12-07T11:35:43;22.80;43.30
75648;DHT22;64238;51.466;7.260;2022-12-07T11:39:04;22.80;43.20
75648;DHT22;64238;51.466;7.260;2022-12-07T11:41:05;22.80;43.40
75648;DHT22;64238;51.466;7.260;2022-12-07T11:46:25;22.80;43.40
75648;DHT22;64238;51.466;7.260;2022-12-07T11:51:29;22.90;43.40
75648;DHT22;64238;51.466;7.260;2022-12-07T11:54:01;22.80;43.30
75648;DHT22;64238;51.466;7.260;2022-12-07T11:56:28;22.90;43.50
75648;DHT22;64238;51.466;7.260;2022-12-07T11:58:58;22.80;43.00
75648;DHT22;64238;51.466;7.260;2022-12-07T12:01:33;22.90;43.10
75648;DHT22;64238;51.466;7.260;2022-12-07T12:06:39;22.80;42.90
75648;DHT22;64238;51.466;7.260;2022-12-07T12:09:19;22.80;43.10
75648;DHT22;64238;51.466;7.260;2022-12-07T12:20:04;22.70;43.00
75648;DHT22;64238;51.466;7.260;2022-12-07T12:22:43;22.60;43.20
75648;DHT22;64238;51.466;7.260;2022-12-07T12:25:24;22.70;43.20
75648;DHT22;64238;51.466;7.260;2022-12-07T12:27:52;22.70;43.30
75648;DHT22;64238;51.466;7.260;2022-12-07T12:30:26;22.80;43.40
75648;DHT22;64238;51.466;7.260;2022-12-07T12:33:02;22.70;43.20
75648;DHT22;64238;51.466;7.260;2022-12-07T12:37:54;22.70;43.00
75648;DHT22;64238;51.466;7.260;2022-12-07T12:42:54;22.80;43.10
75648;DHT22;64238;51.466;7.260;2022-12-07T12:45:31;22.70;43.20
75648;DHT22;64238;51.466;7.260;2022-12-07T12:48:04;22.80;42.90
75648;DHT22;64238;51.466;7.260;2022-12-07T13:03:34;22.90;43.10
75648;DHT22;64238;51.466;7.260;2022-12-07T13:08:53;23.00;43.30
75648;DHT22;64238;51.466;7.260;2022-12-07T13:11:28;23.00;43.30
75648;DHT22;64238;51.466;7.260;2022-12-07T13:16:58;22.90;43.40
75648;DHT22;64238;51.466;7.260;2022-12-07T13:19:53;23.10;43.30
75648;DHT22;64238;51.466;7.260;2022-12-07T13:25:27;23.10;43.30
75648;DHT22;64238;51.466;7.260;2022-12-07T13:28:02;23.20;43.30
75648;DHT22;64238;51.466;7.260;2022-12-07T13:30:29;23.20;43.30
75648;DHT22;64238;51.466;7.260;2022-12-07T13:32:58;23.10;43.20
75648;DHT22;64238;51.466;7.260;2022-12-07T13:37:53;23.20;43.20
75648;DHT22;64238;51.466;7.260;2022-12-07T13:40:21;23.10;43.30
75648;DHT22;64238;51.466;7.260;2022-12-07T13:42:47;23.20;43.30
75648;DHT22;64238;51.466;7.260;2022-12-07T13:45:33;23.30;43.40
75648;DHT22;64238;51.466;7.260;2022-12-07T13:48:56;23.40;42.90
75648;DHT22;64238;51.466;7.260;2022-12-07T13:51:27;23.20;43.40
75648;DHT22;64238;51.466;7.260;2022-12-07T13:53:55;23.20;43.10
75648;DHT22;64238;51.466;7.260;2022-12-07T13:56:31;23.20;43.60
75648;DHT22;64238;51.466;7.260;2022-12-07T13:58:57;23.10;43.30
75648;DHT22;64238;51.466;7.260;2022-12-07T14:01:24;23.20;43.20
75648;DHT22;64238;51.466;7.260;2022-12-07T14:03:50;23.10;43.00
75648;DHT22;64238;51.466;7.260;2022-12-07T14:08:42;23.10;43.10
75648;DHT22;64238;51.466;7.260;2022-12-07T14:11:17;23.10;43.10
75648;DHT22;64238;51.466;7.260;2022-12-07T14:16:34;23.20;43.10
75648;DHT22;64238;51.466;7.260;2022-12-07T14:19:02;23.10;43.10
75648;DHT22;64238;51.466;7.260;2022-12-07T14:21:32;23.20;43.20
75648;DHT22;64238;51.466;7.260;2022-12-07T14:24:16;23.10;43.20
75648;DHT22;64238;51.466;7.260;2022-12-07T14:26:47;23.20;43.20
75648;DHT22;64238;51.466;7.260;2022-12-07T14:29:29;23.20;43.50
75648;DHT22;64238;51.466;7.260;2022-12-07T14:31:58;23.10;43.10
75648;DHT22;64238;51.466;7.260;2022-12-07T14:34:25;23.10;42.90
75648;DHT22;64238;51.466;7.260;2022-12-07T14:36:50;23.10;43.00
75648;DHT22;64238;51.466;7.260;2022-12-07T14:39:16;23.10;43.10
75648;DHT22;64238;51.466;7.260;2022-12-07T14:41:41;23.10;43.00
75648;DHT22;64238;51.466;7.260;2022-12-07T14:44:23;23.00;43.20
75648;DHT22;64238;51.466;7.260;2022-12-07T14:46:49;23.10;42.90
75648;DHT22;64238;51.466;7.260;2022-12-07T14:49:15;23.10;43.10
75648;DHT22;64238;51.466;7.260;2022-12-07T14:51:42;23.00;42.90
75648;DHT22;64238;51.466;7.260;2022-12-07T14:54:15;23.10;43.00
75648;DHT22;64238;51.466;7.260;2022-12-07T14:56:42;23.00;43.20
75648;DHT22;64238;51.466;7.260;2022-12-07T14:59:09;23.10;43.20
75648;DHT22;64238;51.466;7.260;2022-12-07T15:01:35;23.00;43.30
75648;DHT22;64238;51.466;7.260;2022-12-07T15:04:01;23.00;43.40
75648;DHT22;64238;51.466;7.260;2022-12-07T15:06:26;23.00;43.20
75648;DHT22;64238;51.466;7.260;2022-12-07T15:08:52;23.00;43.30
75648;DHT22;64238;51.466;7.260;2022-12-07T15:11:18;22.90;43.30
75648;DHT22;64238;51.466;7.260;2022-12-07T15:13:43;23.00;43.20
75648;DHT22;64238;51.466;7.260;2022-12-07T15:16:28;22.90;43.40
75648;DHT22;64238;51.466;7.260;2022-12-07T15:18:54;22.70;43.30
75648;DHT22;64238;51.466;7.260;2022-12-07T15:21:19;22.90;43.20
75648;DHT22;64238;51.466;7.260;2022-12-07T15:23:46;22.80;43.20
75648;DHT22;64238;51.466;7.260;2022-12-07T15:26:12;22.90;43.40
75648;DHT22;64238;51.466;7.260;2022-12-07T15:28:37;22.80;43.40
75648;DHT22;64238;51.466;7.260;2022-12-07T15:31:03;22.80;43.20
75648;DHT22;64238;51.466;7.260;2022-12-07T15:33:29;22.80;43.30
75648;DHT22;64238;51.466;7.260;2022-12-07T15:35:54;22.80;43.40
75648;DHT22;64238;51.466;7.260;2022-12-07T15:38:20;22.80;43.30
75648;DHT22;64238;51.466;7.260;2022-12-07T15:40:49;22.80;43.20
75648;DHT22;64238;51.466;7.260;2022-12-07T15:43:15;22.70;43.30
75648;DHT22;64238;51.466;7.260;2022-12-07T15:46:00;22.70;43.40
75648;DHT22;64238;51.466;7.260;2022-12-07T15:48:25;22.60;43.50
75648;DHT22;64238;51.466;7.260;2022-12-07T15:50:51;22.70;43.40
75648;DHT22;64238;51.466;7.260;2022-12-07T15:53:17;22.70;43.30
75648;DHT22;64238;51.466;7.260;2022-12-07T15:55:42;22.60;43.20
75648;DHT22;64238;51.466;7.260;2022-12-07T15:58:08;22.60;43.60
75648;DHT22;64238;51.466;7.260;2022-12-07T16:00:33;22.60;43.50
75648;DHT22;64238;51.466;7.260;2022-12-07T16:02:59;22.50;43.30
75648;DHT22;64238;51.466;7.260;2022-12-07T16:05:24;22.60;43.40
75648;DHT22;64238;51.466;7.260;2022-12-07T16:07:50;22.60;43.50
75648;DHT22;64238;51.466;7.260;2022-12-07T16:10:16;22.50;43.30
75648;DHT22;64238;51.466;7.260;2022-12-07T16:12:41;22.50;43.30
75648;DHT22;64238;51.466;7.260;2022-12-07T16:15:07;22.60;43.40
75648;DHT22;64238;51.466;7.260;2022-12-07T16:17:33;22.60;43.30
75648;DHT22;64238;51.466;7.260;2022-12-07T16:19:59;22.60;45.30
75648;DHT22;64238;51.466;7.260;2022-12-07T16:22:24;22.50;43.70
75648;DHT22;64238;51.466;7.260;2022-12-07T16:24:50;22.60;43.60
75648;DHT22;64238;51.466;7.260;2022-12-07T16:27:16;22.50;43.50
75648;DHT22;64238;51.466;7.260;2022-12-07T16:29:41;22.50;43.60
75648;DHT22;64238;51.466;7.260;2022-12-07T16:32:07;22.50;43.60
75648;DHT22;64238;51.466;7.260;2022-12-07T16:34:33;22.50;43.50
75648;DHT22;64238;51.466;7.260;2022-12-07T16:36:58;22.50;43.40
75648;DHT22;64238;51.466;7.260;2022-12-07T16:39:24;22.50;43.50
75648;DHT22;64238;51.466;7.260;2022-12-07T16:41:50;22.50;43.50
75648;DHT22;64238;51.466;7.260;2022-12-07T16:44:16;22.50;43.40
75648;DHT22;64238;51.466;7.260;2022-12-07T16:46:42;22.40;43.50
75648;DHT22;64238;51.466;7.260;2022-12-07T16:49:14;22.40;43.60
75648;DHT22;64238;51.466;7.260;2022-12-07T16:51:41;22.40;43.80
75648;DHT22;64238;51.466;7.260;2022-12-07T16:54:10;22.40;43.60
75648;DHT22;64238;51.466;7.260;2022-12-07T16:56:36;22.30;43.60
75648;DHT22;64238;51.466;7.260;2022-12-07T16:59:02;22.40;43.50
75648;DHT22;64238;51.466;7.260;2022-12-07T17:01:27;22.40;43.50
75648;DHT22;64238;51.466;7.260;2022-12-07T17:03:53;22.50;43.60
75648;DHT22;64238;51.466;7.260;2022-12-07T17:06:21;22.40;43.60
75648;DHT22;64238;51.466;7.260;2022-12-07T17:08:48;22.40;43.50
75648;DHT22;64238;51.466;7.260;2022-12-07T17:11:17;22.50;43.30
75648;DHT22;64238;51.466;7.260;2022-12-07T17:13:43;22.50;43.50
75648;DHT22;64238;51.466;7.260;2022-12-07T17:16:28;22.60;43.30
75648;DHT22;64238;51.466;7.260;2022-12-07T17:18:54;22.60;43.40
75648;DHT22;64238;51.466;7.260;2022-12-07T17:21:20;22.60;43.60
75648;DHT22;64238;51.466;7.260;2022-12-07T17:23:46;22.70;43.20
75648;DHT22;64238;51.466;7.260;2022-12-07T17:26:14;22.60;43.40